Time;durP1;ratioP1;P1;durP2;ratioP2;P2;SDS_P1;SDS_P2;PMS_P1;PMS_P2;Temp;Humidity;BMP_temperature;BMP_pressure;BME280_temperature;BME280_humidity;BME280_pressure;Samples;Min_cycle;Max_cycle;Signal;HPM_P1;HPM_P2
2022/12/03 00:00:22;;;;;;;6.47;2.47;;;;;;;2.30;51.72;101990.20;1761525;80;21511;-52
2022/12/03 00:02:49;;;;;;;5.47;2.12;;;;;;;2.32;51.39;101989.75;1753063;79;21003;-52
2022/12/03 00:05:15;;;;;;;4.92;2.02;;;;;;;2.28;51.36;101989.37;1765121;79;21070;-53
2022/12/03 00:07:42;;;;;;;5.53;2.42;;;;;;;2.22;51.68;101994.71;1767017;79;21154;-53
2022/12/03 00:10:09;;;;;;;5.37;2.10;;;;;;;2.23;51.74;101993.81;1770997;79;21039;-52
2022/12/03 00:12:36;;;;;;;9.48;2.85;;;;;;;2.25;51.80;101996.37;1764924;79;21032;-53
2022/12/03 00:15:04;;;;;;;4.60;2.05;;;;;;;2.26;51.80;101996.80;1768009;79;21067;-53
2022/12/03 00:17:32;;;;;;;6.10;1.98;;;;;;;2.21;51.86;101994.28;1767715;79;20990;-53
2022/12/03 00:19:58;;;;;;;6.17;2.33;;;;;;;2.20;51.83;102002.53;1769806;79;21122;-53
2022/12/03 00:22:25;;;;;;;8.15;2.65;;;;;;;2.20;51.88;101997.34;1767405;80;21103;-54
2022/12/03 00:24:51;;;;;;;6.42;2.40;;;;;;;2.32;51.57;102001.86;1766869;80;21063;-53
2022/12/03 00:27:17;;;;;;;6.45;2.35;;;;;;;2.34;51.46;101997.52;1771714;79;21058;-53
2022/12/03 00:29:44;;;;;;;6.08;2.50;;;;;;;2.37;51.54;102001.32;1772350;79;21353;-52
2022/12/03 00:32:12;;;;;;;8.70;4.47;;;;;;;2.36;51.52;102000.92;1765582;80;21244;-53
2022/12/03 00:34:39;;;;;;;8.13;1.90;;;;;;;2.34;51.43;101998.81;1764843;79;21545;-53
2022/12/03 00:37:05;;;;;;;5.15;1.30;;;;;;;2.34;51.37;102004.01;1766043;79;21055;-53
2022/12/03 00:39:32;;;;;;;4.53;1.62;;;;;;;2.35;51.35;102005.25;1761263;79;21035;-53
2022/12/03 00:41:59;;;;;;;7.42;1.75;;;;;;;2.34;51.56;102001.41;1770188;79;21067;-53
2022/12/03 00:48:10;;;;;;;5.70;2.40;;;;;;;2.35;51.65;102009.14;1765728;79;20995;-54
2022/12/03 00:50:36;;;;;;;5.30;1.92;;;;;;;2.36;51.82;102006.97;1759728;79;21118;-54
2022/12/03 00:53:03;;;;;;;6.25;2.25;;;;;;;2.35;51.75;102005.25;1770034;79;21557;-52
2022/12/03 00:55:29;;;;;;;4.42;1.60;;;;;;;2.35;51.94;102006.55;1767535;79;21631;-55
2022/12/03 00:57:56;;;;;;;4.70;2.12;;;;;;;2.34;51.92;102004.85;1744986;81;21604;-56
2022/12/03 01:00:24;;;;;;;7.17;2.10;;;;;;;2.28;52.11;102006.71;1747482;79;21524;-52
2022/12/03 01:02:51;;;;;;;4.75;2.05;;;;;;;2.32;52.05;102003.16;1734353;80;21104;-52
2022/12/03 01:05:19;;;;;;;5.67;2.60;;;;;;;2.36;51.87;102008.27;1757113;79;21048;-53
2022/12/03 01:07:46;;;;;;;6.33;2.37;;;;;;;2.36;51.89;102010.02;1755416;79;21067;-52
2022/12/03 01:10:12;;;;;;;5.72;2.17;;;;;;;2.35;51.63;102007.84;1756827;79;21205;-51
2022/12/03 01:12:39;;;;;;;6.67;1.75;;;;;;;2.36;51.65;102004.83;1751039;79;21001;-51
2022/12/03 01:15:07;;;;;;;5.33;1.70;;;;;;;2.40;51.67;102007.34;1749083;80;21095;-52
2022/12/03 01:17:34;;;;;;;6.45;2.10;;;;;;;2.39;51.87;102004.77;1750480;80;21115;-52
2022/12/03 01:20:02;;;;;;;5.60;1.75;;;;;;;2.38;51.81;102010.84;1758061;80;21553;-52
2022/12/03 01:22:28;;;;;;;8.33;2.35;;;;;;;2.36;51.85;102012.16;1753368;79;22350;-52
2022/12/03 01:24:55;;;;;;;5.50;2.27;;;;;;;2.35;51.81;102010.89;1753788;80;22229;-51
2022/12/03 01:27:23;;;;;;;5.80;2.05;;;;;;;2.30;51.96;102010.97;1757208;79;21038;-51
2022/12/03 01:29:49;;;;;;;6.03;1.85;;;;;;;2.34;52.04;102010.50;1752626;79;21308;-52
2022/12/03 01:32:15;;;;;;;5.15;2.12;;;;;;;2.36;51.98;102011.32;1754912;81;21086;-52
2022/12/03 01:34:46;;;;;;;6.83;2.08;;;;;;;2.23;52.37;102010.69;1756792;79;21211;-53
2022/12/03 01:37:13;;;;;;;6.60;2.02;;;;;;;2.28;52.39;102015.35;1730475;81;21118;-53
2022/12/03 01:39:40;;;;;;;5.83;2.27;;;;;;;2.34;52.14;102015.24;1756758;79;21707;-53
2022/12/03 01:42:08;;;;;;;6.25;2.12;;;;;;;2.31;52.26;102016.59;1752316;81;21110;-52
2022/12/03 01:44:36;;;;;;;5.85;2.08;;;;;;;2.35;52.33;102016.09;1754828;79;21096;-53
2022/12/03 01:48:41;;;;;;;5.53;2.62;;;;;;;2.17;52.90;102017.29;1795447;78;22692;-71
2022/12/03 01:51:07;;;;;;;4.67;1.80;;;;;;;2.34;52.39;102021.73;1771203;80;21034;-72
2022/12/03 01:53:34;;;;;;;6.12;2.22;;;;;;;2.32;52.53;102023.94;1777873;80;21206;-71
2022/12/03 01:56:01;;;;;;;4.65;1.70;;;;;;;2.35;52.42;102024.73;1737778;81;21062;-71
2022/12/03 01:58:27;;;;;;;3.98;1.60;;;;;;;2.38;52.44;102026.42;1764503;78;20979;-71
2022/12/03 02:00:56;;;;;;;6.58;3.40;;;;;;;2.41;52.26;102032.41;1760804;78;21003;-71
2022/12/03 02:03:25;;;;;;;3.85;1.47;;;;;;;2.38;52.29;102025.97;1777867;79;20887;-71
2022/12/03 02:05:51;;;;;;;4.97;2.10;;;;;;;2.40;52.34;102029.84;1718544;83;21329;-71
2022/12/03 02:08:36;;;;;;;5.25;1.95;;;;;;;2.20;52.78;102028.92;1742834;81;21619;-71
2022/12/03 02:11:22;;;;;;;7.42;2.42;;;;;;;2.18;52.79;102031.55;1714688;83;21573;-71
2022/12/03 02:13:50;;;;;;;;;;;;;;;2.13;52.94;102029.93;1735115;81;21035;-72
2022/12/03 02:16:16;;;;;;;5.85;1.65;;;;;;;2.11;53.02;102037.75;1749005;80;20638;-72
2022/12/03 02:18:43;;;;;;;8.28;2.30;;;;;;;2.10;53.14;102035.17;1720133;83;21950;-70
2022/12/03 02:21:18;;;;;;;5.95;1.95;;;;;;;2.09;53.34;102034.78;1708024;83;21648;-70
2022/12/03 02:23:53;;;;;;;5.50;2.37;;;;;;;2.08;53.32;102035.66;1715390;83;21016;-71
2022/12/03 02:26:19;;;;;;;6.17;2.20;;;;;;;2.06;53.31;102036.97;1729806;81;21058;-70
2022/12/03 02:28:46;;;;;;;7.87;3.90;;;;;;;2.04;53.29;102036.16;1696561;83;21508;-70
2022/12/03 02:31:12;;;;;;;5.15;1.45;;;;;;;2.04;53.21;102038.30;1717316;81;21214;-70
2022/12/03 02:33:38;;;;;;;6.03;2.35;;;;;;;2.04;53.36;102041.34;1750267;81;21638;-71
2022/12/03 02:36:05;;;;;;;6.22;2.17;;;;;;;2.07;53.46;102040.42;1722056;83;21149;-71
2022/12/03 02:38:32;;;;;;;8.03;2.47;;;;;;;2.04;53.25;102043.95;1715964;81;21064;-70
2022/12/03 02:41:05;;;;;;;6.87;1.65;;;;;;;2.06;53.25;102045.22;1712700;83;21051;-71
2022/12/03 02:43:31;;;;;;;6.92;2.20;;;;;;;2.03;53.38;102044.81;1700559;83;21191;-71
2022/12/03 02:45:59;;;;;;;4.75;1.98;;;;;;;2.04;53.36;102042.64;1713014;81;21074;-70
2022/12/03 02:48:29;;;;;;;9.40;2.95;;;;;;;2.02;53.57;102043.13;1690244;83;21144;-70
2022/12/03 02:50:58;;;;;;;4.95;2.25;;;;;;;2.01;53.56;102050.48;1683093;83;21052;-71
2022/12/03 02:53:34;;;;;;;7.12;2.40;;;;;;;2.00;53.64;102048.76;1684649;83;21099;-70
2022/12/03 02:56:01;;;;;;;5.05;1.45;;;;;;;2.01;53.51;102046.14;1701205;83;21190;-70
2022/12/03 02:58:29;;;;;;;5.05;1.87;;;;;;;2.01;53.60;102049.19;1705372;82;21047;-70
2022/12/03 03:00:55;;;;;;;6.80;1.85;;;;;;;2.04;53.55;102048.69;1701560;82;21024;-70
2022/12/03 03:03:22;;;;;;;4.75;1.90;;;;;;;2.05;53.51;102058.62;1697537;83;21087;-71
2022/12/03 03:05:49;;;;;;;4.65;2.12;;;;;;;2.07;53.62;102051.69;1701297;83;21055;-70
2022/12/03 03:08:15;;;;;;;11.75;2.65;;;;;;;2.08;53.66;102055.12;1703112;82;21256;-71
2022/12/03 03:10:42;;;;;;;5.95;2.25;;;;;;;2.09;53.74;102052.51;1680813;83;21084;-70
2022/12/03 03:13:11;;;;;;;6.87;2.40;;;;;;;2.08;53.92;102059.02;1685257;84;21028;-71
2022/12/03 03:15:39;;;;;;;10.25;2.35;;;;;;;2.12;53.91;102056.77;1744529;80;21099;-70
2022/12/03 03:18:08;;;;;;;4.50;1.47;;;;;;;2.11;53.75;102057.22;1749149;80;21121;-70
2022/12/03 03:20:35;;;;;;;5.72;1.98;;;;;;;2.14;53.74;102058.92;1741487;80;21094;-71
2022/12/03 03:23:13;;;;;;;6.78;2.25;;;;;;;2.12;53.85;102056.77;1743754;82;21576;-71
2022/12/03 03:25:43;;;;;;;5.97;1.92;;;;;;;2.14;53.94;102056.33;1739333;80;20991;-71
2022/12/03 03:28:09;;;;;;;6.37;2.00;;;;;;;2.12;54.00;102057.66;1734267;80;21046;-71
2022/12/03 03:30:36;;;;;;;6.67;2.08;;;;;;;2.13;53.96;102058.50;1742505;80;21074;-70
2022/12/03 03:33:02;;;;;;;8.70;2.95;;;;;;;2.11;53.99;102058.97;1744552;81;21992;-71
2022/12/03 03:35:29;;;;;;;6.87;2.62;;;;;;;2.10;53.77;102062.02;1743749;81;21046;-70
2022/12/03 03:37:55;;;;;;;5.05;2.62;;;;;;;2.06;53.82;102062.09;1745675;80;21024;-70
2022/12/03 03:40:22;;;;;;;4.33;1.70;;;;;;;2.06;53.88;102063.39;1746970;81;21022;-71
2022/12/03 03:42:48;;;;;;;5.53;2.27;;;;;;;2.03;53.89;102070.36;1742432;80;21586;-71
2022/12/03 03:45:14;;;;;;;7.37;4.12;;;;;;;2.02;53.98;102070.38;1741746;80;21958;-71
2022/12/03 03:47:41;;;;;;;6.70;2.20;;;;;;;2.01;54.06;102073.40;1751449;80;21034;-70
2022/12/03 03:50:09;;;;;;;5.75;2.55;;;;;;;2.01;53.98;102072.10;1761624;80;21072;-70
2022/12/03 03:52:36;;;;;;;7.72;2.77;;;;;;;2.00;54.04;102072.12;1762560;80;21061;-70
2022/12/03 03:55:04;;;;;;;7.22;2.55;;;;;;;1.99;54.14;102076.47;1758109;80;21104;-70
2022/12/03 03:57:30;;;;;;;5.17;1.65;;;;;;;1.98;54.10;102080.39;1764282;80;21793;-71
2022/12/03 03:59:58;;;;;;;6.42;2.58;;;;;;;1.99;54.13;102087.30;1767124;80;21091;-70
2022/12/03 04:02:25;;;;;;;11.40;5.28;;;;;;;1.96;54.24;102081.71;1766048;80;21039;-70
2022/12/03 04:04:52;;;;;;;5.90;2.22;;;;;;;1.95;54.27;102081.73;1744693;80;21046;-70
2022/12/03 04:07:18;;;;;;;6.33;2.42;;;;;;;1.94;54.21;102079.59;1771458;80;21050;-70
2022/12/03 04:09:45;;;;;;;5.08;1.92;;;;;;;1.93;54.18;102083.05;1705458;83;21266;-70
2022/12/03 04:14:56;;;;;;;6.28;2.27;;;;;;;1.90;54.23;102087.02;1765238;80;21011;-71
2022/12/03 04:17:23;;;;;;;5.55;2.52;;;;;;;1.91;54.22;102093.06;1768810;80;21063;-71
2022/12/03 04:19:49;;;;;;;6.00;2.12;;;;;;;1.89;54.24;102088.34;1764660;80;21017;-70
2022/12/03 04:30:30;;;;;;;5.70;2.05;;;;;;;1.90;54.42;102097.41;1758869;80;21046;-71
2022/12/03 04:35:41;;;;;;;4.80;1.42;;;;;;;1.89;54.43;102099.58;1760179;80;21241;-71
2022/12/03 04:38:14;;;;;;;5.83;2.02;;;;;;;1.88;54.39;102103.05;1767707;80;21043;-72
2022/12/03 04:43:27;;;;;;;8.78;2.85;;;;;;;1.88;54.44;102106.94;1749996;79;21043;-71
2022/12/03 04:45:54;;;;;;;5.20;1.60;;;;;;;1.89;54.43;102114.30;1695102;83;21061;-70
2022/12/03 04:48:20;;;;;;;4.83;1.72;;;;;;;1.85;54.34;102116.09;1759854;80;21258;-71
2022/12/03 04:50:47;;;;;;;7.20;2.70;;;;;;;1.83;54.40;102114.82;1746348;80;21059;-71
2022/12/03 04:53:13;;;;;;;4.72;1.85;;;;;;;1.84;54.52;102116.52;1766149;80;21095;-71
2022/12/03 04:55:40;;;;;;;7.15;2.33;;;;;;;1.85;54.46;102123.88;1716703;82;21040;-71
2022/12/03 04:58:06;;;;;;;5.17;1.95;;;;;;;1.85;54.54;102126.48;1751900;80;21559;-71
2022/12/03 05:00:32;;;;;;;6.67;2.20;;;;;;;1.87;54.64;102122.11;1752724;80;21757;-71
2022/12/03 05:02:59;;;;;;;6.85;1.82;;;;;;;1.83;54.60;102127.80;1753528;80;21560;-71
2022/12/03 05:05:25;;;;;;;4.42;1.62;;;;;;;1.86;54.71;102134.22;1749359;80;21033;-71
2022/12/03 05:07:51;;;;;;;7.15;2.12;;;;;;;1.87;54.66;102127.31;1752256;80;21013;-71
2022/12/03 05:10:18;;;;;;;6.85;2.83;;;;;;;1.89;54.67;102125.53;1696234;82;21058;-71
2022/12/03 05:12:44;;;;;;;5.90;2.25;;;;;;;1.89;54.72;102130.73;1752904;79;21084;-71
2022/12/03 05:15:11;;;;;;;7.42;3.02;;;;;;;1.88;54.64;102134.19;1759895;80;21023;-71
2022/12/03 05:17:37;;;;;;;8.93;2.55;;;;;;;1.86;54.74;102137.27;1758966;79;21121;-71
2022/12/03 05:22:50;;;;;;;6.25;2.22;;;;;;;1.85;54.70;102144.66;1751521;79;21074;-72
2022/12/03 05:25:16;;;;;;;5.85;2.17;;;;;;;1.84;54.77;102144.22;1756798;80;21186;-71
2022/12/03 05:27:43;;;;;;;7.85;2.58;;;;;;;1.80;54.85;102150.33;1750580;80;21094;-71
2022/12/03 05:30:11;;;;;;;5.78;2.62;;;;;;;1.80;54.90;102148.61;1753517;80;21047;-71
2022/12/03 05:32:37;;;;;;;7.80;2.15;;;;;;;1.82;55.04;102149.88;1748940;80;21087;-71
2022/12/03 05:35:04;;;;;;;4.87;2.00;;;;;;;1.87;55.19;102157.16;1752556;80;21075;-71
2022/12/03 05:37:31;;;;;;;15.05;2.80;;;;;;;1.86;55.04;102159.33;1762301;80;21128;-71
2022/12/03 05:39:57;;;;;;;5.92;2.08;;;;;;;1.86;55.01;102158.03;1750037;80;21056;-71
2022/12/03 05:47:19;;;;;;;7.60;2.25;;;;;;;1.80;55.45;102168.49;1867333;74;22010;-71
2022/12/03 05:49:46;;;;;;;6.92;2.87;;;;;;;1.88;55.31;102167.94;1845316;77;21057;-72
2022/12/03 05:52:12;;;;;;;7.10;2.22;;;;;;;1.89;55.37;102168.83;1840843;77;21923;-72
2022/12/03 05:54:38;;;;;;;6.62;2.62;;;;;;;1.89;55.36;102167.08;1831351;77;21646;-72
2022/12/03 05:57:05;;;;;;;10.15;3.47;;;;;;;1.88;55.43;102179.63;1842589;77;21582;-72
2022/12/03 05:59:32;;;;;;;5.17;2.12;;;;;;;1.85;55.45;102179.70;1834680;77;20963;-72
2022/12/03 06:01:58;;;;;;;5.87;2.90;;;;;;;1.85;55.59;102176.65;1853817;77;21101;-72
2022/12/03 06:04:25;;;;;;;7.25;3.00;;;;;;;1.88;55.52;102177.48;1835791;77;21218;-70
2022/12/03 06:06:51;;;;;;;8.00;2.77;;;;;;;1.86;55.61;102183.98;1832243;77;21016;-70
2022/12/03 06:09:17;;;;;;;9.63;3.62;;;;;;;1.87;55.68;102188.31;1828463;77;21022;-70
2022/12/03 06:11:44;;;;;;;10.72;6.33;;;;;;;1.85;55.83;102188.78;1839527;77;21041;-70
2022/12/03 06:14:10;;;;;;;8.33;3.42;;;;;;;1.88;55.88;102188.71;1838453;77;21089;-70
2022/12/03 06:16:37;;;;;;;5.72;2.20;;;;;;;1.90;56.04;102191.28;1839172;77;21171;-71
2022/12/03 06:19:03;;;;;;;6.37;2.15;;;;;;;1.93;56.06;102195.14;1847336;77;21120;-71
2022/12/03 06:21:29;;;;;;;9.13;2.85;;;;;;;1.91;56.24;102189.97;1835601;77;20998;-71
2022/12/03 06:23:56;;;;;;;9.63;3.67;;;;;;;1.92;56.31;102193.44;1841197;77;21641;-71
2022/12/03 06:26:22;;;;;;;9.95;3.05;;;;;;;1.88;56.49;102202.14;1830769;77;21544;-71
2022/12/03 06:28:49;;;;;;;8.78;2.85;;;;;;;1.90;56.63;102199.95;1832232;77;21255;-71
2022/12/03 06:31:15;;;;;;;8.88;3.22;;;;;;;1.87;56.80;102209.08;1838850;77;21561;-71
2022/12/03 06:33:42;;;;;;;8.95;3.47;;;;;;;1.87;56.90;102203.89;1834865;77;20970;-71
2022/12/03 06:36:08;;;;;;;9.23;3.67;;;;;;;1.85;57.08;102219.48;1840021;77;21085;-71
2022/12/03 06:38:35;;;;;;;8.38;3.67;;;;;;;1.87;57.17;102211.67;1831447;77;21100;-70
2022/12/03 06:41:01;;;;;;;8.93;2.90;;;;;;;1.88;57.28;102217.72;1839461;77;21116;-73
2022/12/03 06:43:29;;;;;;;7.78;3.50;;;;;;;1.90;57.42;102221.14;1825834;77;21075;-73
2022/12/03 06:45:56;;;;;;;9.78;3.22;;;;;;;1.89;57.55;102224.64;1842374;77;20984;-72
2022/12/03 06:48:23;;;;;;;9.93;3.58;;;;;;;1.89;57.61;102231.13;1840782;77;21141;-70
2022/12/03 06:50:50;;;;;;;8.88;3.42;;;;;;;1.90;57.86;102232.83;1836262;76;21025;-71
2022/12/03 06:53:16;;;;;;;8.83;3.45;;;;;;;1.91;57.98;102231.95;1824020;77;21238;-71
2022/12/03 06:55:42;;;;;;;9.58;2.95;;;;;;;1.91;58.18;102232.80;1826490;77;20991;-71
2022/12/03 06:58:09;;;;;;;9.20;3.87;;;;;;;1.92;58.25;102240.17;1829872;77;21664;-72
2022/12/03 07:00:35;;;;;;;10.30;3.45;;;;;;;1.89;58.40;102239.77;1833656;77;20995;-70
2022/12/03 07:03:02;;;;;;;8.53;3.47;;;;;;;1.89;58.45;102244.11;1829969;77;21101;-71
2022/12/03 07:05:28;;;;;;;14.10;7.78;;;;;;;1.85;58.56;102239.41;1826809;77;22251;-68
2022/12/03 07:07:55;;;;;;;9.75;3.65;;;;;;;1.85;58.61;102242.00;1844305;77;21574;-71
2022/12/03 07:10:21;;;;;;;9.80;4.17;;;;;;;1.82;58.76;102243.33;1826833;77;21461;-72
2022/12/03 07:12:47;;;;;;;8.13;3.17;;;;;;;1.82;58.97;102245.92;1818713;77;21054;-69
2022/12/03 07:15:14;;;;;;;10.43;4.12;;;;;;;1.75;59.18;102239.08;1787258;79;21074;-71
2022/12/03 10:10:45;;;;;;;11.25;4.00;;;;;;;1.53;58.24;102317.64;1790039;78;22654;-73
2022/12/03 10:13:16;;;;;;;14.93;3.35;;;;;;;1.63;57.69;102317.53;1773136;80;21018;-73
2022/12/03 10:15:42;;;;;;;10.32;4.15;;;;;;;1.63;57.56;102320.12;1766631;80;21246;-74
2022/12/03 10:18:19;;;;;;;9.13;4.33;;;;;;;1.60;57.48;102321.45;1772494;80;21423;-73
2022/12/03 10:20:45;;;;;;;10.30;4.08;;;;;;;1.58;57.29;102326.23;1765861;80;21038;-73
2022/12/03 10:23:23;;;;;;;8.58;3.83;;;;;;;1.58;57.28;102323.63;1767301;80;21058;-74
2022/12/03 10:25:52;;;;;;;9.13;3.95;;;;;;;1.63;57.30;102320.55;1763893;80;21056;-73
2022/12/03 10:28:32;;;;;;;12.95;3.67;;;;;;;1.63;57.20;102316.23;1768847;80;21917;-74
2022/12/03 10:30:59;;;;;;;6.75;3.17;;;;;;;1.70;57.22;102320.03;1766157;80;21011;-75
2022/12/03 10:33:32;;;;;;;10.20;4.03;;;;;;;1.72;57.00;102325.64;1764744;80;21083;-76
2022/12/03 10:36:18;;;;;;;8.63;4.05;;;;;;;1.73;56.81;102319.59;1762972;80;21020;-74
2022/12/03 10:38:44;;;;;;;7.77;3.33;;;;;;;1.72;56.86;102319.16;1773894;80;21506;-74
2022/12/03 10:41:22;;;;;;;9.48;4.12;;;;;;;1.76;56.92;102322.13;1766539;80;21259;-75
2022/12/03 10:43:49;;;;;;;8.70;3.25;;;;;;;1.77;56.98;102318.66;1760596;80;21591;-75
2022/12/03 10:46:21;;;;;;;8.40;3.87;;;;;;;1.80;56.96;102318.63;1765581;80;21647;-76
2022/12/03 10:49:16;;;;;;;8.80;3.40;;;;;;;1.78;56.97;102320.39;1767274;80;21555;-77
2022/12/03 10:51:43;;;;;;;9.18;4.20;;;;;;;1.79;56.93;102316.89;1765584;80;21115;-72
2022/12/03 10:54:20;;;;;;;7.95;3.10;;;;;;;1.74;56.98;102319.98;1772734;80;21220;-74
2022/12/03 10:56:47;;;;;;;8.20;3.37;;;;;;;1.74;57.12;102319.98;1766075;80;21103;-75
2022/12/03 10:59:17;;;;;;;10.98;4.28;;;;;;;1.74;57.37;102333.41;1761092;80;21039;-74
2022/12/03 11:01:43;;;;;;;10.35;3.30;;;;;;;1.72;57.64;102331.28;1764631;80;21019;-74
2022/12/03 11:04:32;;;;;;;7.10;3.67;;;;;;;1.71;58.16;102330.84;1766101;80;21543;-74
2022/12/03 11:06:59;;;;;;;9.10;3.33;;;;;;;1.73;58.56;102329.97;1772713;80;21228;-74
2022/12/03 11:09:28;;;;;;;7.17;3.60;;;;;;;1.74;58.88;102330.82;1733339;81;21153;-74
2022/12/03 11:11:55;;;;;;;7.67;3.30;;;;;;;1.77;59.23;102334.68;1721392;81;21584;-74
2022/12/03 11:14:53;;;;;;;9.70;3.80;;;;;;;1.74;59.13;102332.11;1727589;81;21060;-74
2022/12/03 11:17:48;;;;;;;8.23;3.30;;;;;;;1.74;58.99;102341.20;1729521;81;21623;-74
2022/12/03 11:20:25;;;;;;;8.28;3.52;;;;;;;1.72;58.67;102349.00;1697817;82;21942;-73
2022/12/03 11:22:54;;;;;;;11.53;3.95;;;;;;;1.69;58.35;102343.84;1738248;82;21038;-72
2022/12/03 11:25:35;;;;;;;7.42;2.87;;;;;;;1.69;57.95;102352.08;1732860;82;21126;-73
2022/12/03 11:28:22;;;;;;;9.50;3.05;;;;;;;1.64;57.74;102342.59;1725891;82;21015;-72
2022/12/03 11:30:55;;;;;;;8.15;3.12;;;;;;;1.61;57.47;102346.52;1733129;81;21015;-73
2022/12/03 11:33:35;;;;;;;7.95;2.90;;;;;;;1.56;57.41;102348.30;1735786;82;21871;-73
2022/12/03 11:36:08;;;;;;;6.45;2.42;;;;;;;1.55;57.44;102349.19;1730745;82;21039;-72
2022/12/03 11:38:44;;;;;;;7.10;3.50;;;;;;;1.52;57.38;102352.27;1692234;83;21043;-73
2022/12/03 11:41:17;;;;;;;9.55;3.22;;;;;;;1.55;57.64;102347.90;1729331;82;21030;-73
2022/12/03 11:43:56;;;;;;;10.15;3.90;;;;;;;1.60;57.62;102352.59;1735577;82;21074;-73
2022/12/03 11:46:44;;;;;;;8.63;2.27;;;;;;;1.63;57.40;102355.58;1736537;82;21119;-73
2022/12/03 11:49:35;;;;;;;7.12;3.72;;;;;;;1.58;57.42;102350.88;1730880;82;21620;-73
2022/12/03 11:52:12;;;;;;;6.30;2.85;;;;;;;1.55;57.78;102354.83;1730861;81;21096;-73
2022/12/03 11:54:39;;;;;;;5.95;2.67;;;;;;;1.54;58.10;102359.59;1730550;82;21046;-73
2022/12/03 11:57:23;;;;;;;7.12;3.10;;;;;;;1.52;58.25;102362.19;1747647;82;21113;-73
2022/12/03 11:59:58;;;;;;;6.08;2.30;;;;;;;1.53;58.52;102363.92;1729783;82;21227;-72
2022/12/03 12:02:25;;;;;;;;;;;;;;;1.57;58.84;102363.00;1734207;81;21042;-73
2022/12/03 12:04:51;;;;;;;13.20;3.27;;;;;;;1.61;58.95;102354.74;1733052;82;20189;-73
2022/12/03 12:07:35;;;;;;;5.87;2.10;;;;;;;1.59;59.05;102357.35;1735984;81;21082;-72
2022/12/03 12:10:03;;;;;;;5.45;2.37;;;;;;;1.55;59.20;102366.06;1743359;80;21180;-73
2022/12/03 12:12:43;;;;;;;8.20;2.98;;;;;;;1.52;59.59;102369.98;1754899;81;21093;-72
2022/12/03 12:15:45;;;;;;;7.30;2.70;;;;;;;1.50;59.87;102371.73;1751460;81;21086;-72
2022/12/03 12:18:44;;;;;;;4.55;2.10;;;;;;;1.47;60.36;102370.02;1753888;81;20984;-73
2022/12/03 12:21:40;;;;;;;6.90;2.42;;;;;;;1.54;60.58;102370.81;1754618;81;21061;-72
2022/12/03 12:24:45;;;;;;;5.30;1.87;;;;;;;1.52;60.64;102376.47;1752235;81;21586;-73
2022/12/03 12:27:17;;;;;;;5.35;2.20;;;;;;;1.48;60.59;102371.75;1749245;81;21364;-73
2022/12/03 12:29:46;;;;;;;9.05;3.83;;;;;;;1.46;60.51;102381.70;1750775;81;21034;-73
2022/12/03 12:32:16;;;;;;;9.30;3.37;;;;;;;1.41;60.62;102383.48;1729618;81;21016;-73
2022/12/03 12:34:45;;;;;;;7.03;2.70;;;;;;;1.40;60.59;102389.13;1755052;80;21070;-73
2022/12/03 12:37:18;;;;;;;9.00;2.92;;;;;;;1.39;60.44;102386.54;1753831;81;21535;-73
2022/12/03 12:39:44;;;;;;;7.28;2.65;;;;;;;1.36;60.57;102388.74;1757043;81;21875;-73
2022/12/03 12:42:34;;;;;;;6.67;2.83;;;;;;;1.36;60.65;102392.63;1752403;80;21071;-73
2022/12/03 12:45:16;;;;;;;6.12;1.75;;;;;;;1.34;60.79;102390.47;1750074;81;21130;-73
2022/12/03 12:48:08;;;;;;;9.78;2.62;;;;;;;1.31;60.85;102393.08;1753108;80;21047;-73
2022/12/03 12:50:36;;;;;;;5.78;2.25;;;;;;;1.32;61.06;102400.45;1754237;81;21550;-73
2022/12/03 12:53:29;;;;;;;8.10;2.40;;;;;;;1.32;61.00;102404.34;1751808;81;21156;-73
2022/12/03 12:55:58;;;;;;;6.58;2.72;;;;;;;1.29;61.16;102403.50;1685263;84;21603;-73
2022/12/03 12:58:25;;;;;;;9.63;2.90;;;;;;;1.29;61.22;102403.50;1733800;81;21084;-75
2022/12/03 13:00:55;;;;;;;8.20;3.72;;;;;;;1.29;61.28;102403.91;1743907;81;21074;-75
2022/12/03 13:03:28;;;;;;;7.20;3.22;;;;;;;1.26;61.32;102411.30;1748063;81;21032;-75
2022/12/03 13:05:56;;;;;;;7.03;3.02;;;;;;;1.28;61.31;102411.30;1686031;83;21394;-75
2022/12/03 13:08:26;;;;;;;8.63;3.08;;;;;;;1.23;61.21;102410.03;1745414;81;21526;-75
2022/12/03 13:10:55;;;;;;;6.17;2.50;;;;;;;1.22;61.27;102412.19;1760801;80;21048;-74
2022/12/03 13:13:26;;;;;;;11.73;3.95;;;;;;;1.18;61.42;102414.39;1758610;79;22196;-75
2022/12/03 13:16:18;;;;;;;8.25;3.02;;;;;;;1.18;61.55;102413.09;1757343;80;22192;-75
2022/12/03 13:18:54;;;;;;;6.87;2.80;;;;;;;1.19;61.68;102421.28;1755357;79;21144;-74
2022/12/03 13:21:25;;;;;;;7.08;2.30;;;;;;;1.20;61.72;102423.02;1749379;80;21493;-75
2022/12/03 13:23:54;;;;;;;7.40;2.40;;;;;;;1.17;61.84;102436.00;1759483;80;21090;-75
2022/12/03 13:26:34;;;;;;;8.50;4.00;;;;;;;1.16;61.83;102435.59;1749786;79;21087;-75
2022/12/03 13:29:04;;;;;;;5.70;2.15;;;;;;;1.11;62.03;102438.66;1697958;82;21024;-74
2022/12/03 13:31:33;;;;;;;5.95;2.60;;;;;;;1.08;61.88;102434.79;1677119;83;21098;-75
2022/12/03 13:33:59;;;;;;;7.10;2.65;;;;;;;1.03;61.97;102442.59;1748762;80;21048;-75
2022/12/03 13:36:36;;;;;;;5.75;2.65;;;;;;;1.00;61.93;102441.31;1757305;79;21115;-75
2022/12/03 13:39:17;;;;;;;6.97;2.98;;;;;;;0.99;61.88;102438.28;1715115;82;21039;-75
2022/12/03 13:44:30;;;;;;;6.83;2.50;;;;;;;0.98;61.93;102439.17;1757642;79;21741;-75
2022/12/03 13:47:00;;;;;;;7.25;2.37;;;;;;;0.97;61.99;102439.19;1746485;80;21027;-75
2022/12/03 13:49:27;;;;;;;7.55;2.75;;;;;;;1.00;61.83;102436.58;1735053;80;21071;-75
2022/12/03 13:51:54;;;;;;;6.72;2.67;;;;;;;0.99;61.65;102438.73;1747452;80;21087;-75
2022/12/03 13:54:22;;;;;;;6.70;2.12;;;;;;;1.00;61.47;102444.35;1753390;79;21055;-74
2022/12/03 13:56:49;;;;;;;9.25;3.40;;;;;;;0.96;61.51;102448.70;1756092;80;21207;-75
2022/12/03 13:59:15;;;;;;;7.12;2.60;;;;;;;0.97;61.55;102449.55;1744271;80;21086;-75
2022/12/03 14:01:43;;;;;;;7.22;3.12;;;;;;;0.95;61.45;102449.56;1748408;80;21088;-75
2022/12/03 14:04:10;;;;;;;6.03;3.00;;;;;;;0.97;61.43;102450.84;1751741;80;21114;-74
2022/12/03 14:06:37;;;;;;;7.30;2.85;;;;;;;0.98;61.43;102452.58;1753523;79;21166;-75
2022/12/03 14:09:03;;;;;;;7.97;2.80;;;;;;;0.97;61.39;102453.00;1755122;80;21740;-75
2022/12/03 14:14:15;;;;;;;6.30;2.45;;;;;;;0.98;61.22;102456.47;1735096;81;21058;-75
2022/12/03 14:19:03;;;;;;;6.65;2.70;;;;;;;1.00;61.59;102449.54;1794901;77;22250;-76
2022/12/03 14:21:29;;;;;;;5.05;2.12;;;;;;;1.19;60.90;102458.03;1776197;80;20892;-75
2022/12/03 14:23:56;;;;;;;8.53;3.47;;;;;;;1.11;60.65;102452.92;1778164;80;21082;-75
2022/12/03 14:26:22;;;;;;;7.30;3.25;;;;;;;1.17;60.55;102458.05;1773755;79;21023;-72
2022/12/03 14:28:48;;;;;;;7.40;3.15;;;;;;;1.19;60.50;102460.63;1774366;79;21120;-73
2022/12/03 14:31:15;;;;;;;6.87;2.45;;;;;;;1.21;60.50;102459.76;1768802;80;21013;-74
2022/12/03 14:33:41;;;;;;;7.25;2.22;;;;;;;1.19;60.54;102461.48;1778940;79;20991;-76
2022/12/03 14:36:08;;;;;;;11.88;3.05;;;;;;;1.19;60.52;102462.77;1780415;78;21882;-77
2022/12/03 14:38:34;;;;;;;5.55;1.92;;;;;;;1.17;60.62;102457.19;1780212;80;21081;-75
2022/12/03 14:41:01;;;;;;;6.20;2.15;;;;;;;1.21;60.67;102454.57;1779733;79;21070;-72
2022/12/03 14:43:28;;;;;;;5.53;1.90;;;;;;;1.19;60.50;102460.63;1774357;80;21042;-74
2022/12/03 14:45:54;;;;;;;9.23;2.45;;;;;;;1.19;60.47;102458.88;1779990;80;21082;-73
2022/12/03 14:48:21;;;;;;;7.97;2.65;;;;;;;1.18;60.47;102462.37;1782540;78;21283;-73
2022/12/03 14:50:47;;;;;;;7.55;2.52;;;;;;;1.21;60.42;102456.28;1778409;78;21072;-74
2022/12/03 14:53:14;;;;;;;6.17;2.00;;;;;;;1.11;60.39;102459.41;1775578;80;21062;-72
2022/12/03 14:55:40;;;;;;;6.17;2.20;;;;;;;1.24;59.95;102464.05;1771581;80;21079;-73
2022/12/03 14:58:07;;;;;;;7.80;2.20;;;;;;;1.26;59.64;102462.29;1771731;80;21142;-75
2022/12/03 15:00:33;;;;;;;8.00;2.98;;;;;;;1.30;59.61;102471.34;1773093;79;21172;-76
2022/12/03 15:02:59;;;;;;;7.97;2.90;;;;;;;1.32;59.40;102467.44;1778933;79;21004;-76
2022/12/03 15:05:26;;;;;;;5.05;2.17;;;;;;;1.34;59.22;102460.50;1780340;80;21007;-76
2022/12/03 15:07:52;;;;;;;7.87;2.62;;;;;;;1.33;59.23;102463.11;1778394;78;21051;-74
2022/12/03 15:10:19;;;;;;;7.50;2.30;;;;;;;1.38;59.22;102473.89;1776504;80;21008;-75
2022/12/03 15:12:45;;;;;;;8.73;2.72;;;;;;;1.37;59.06;102476.05;1776726;79;21191;-75
2022/12/03 15:15:12;;;;;;;6.17;2.90;;;;;;;1.40;58.89;102473.43;1771718;79;20991;-75